Time;durP1;ratioP1;P1;durP2;ratioP2;P2;SDS_P1;SDS_P2;PMS_P1;PMS_P2;Temp;Humidity;BMP_temperature;BMP_pressure;BME280_temperature;BME280_humidity;BME280_pressure;Samples;Min_cycle;Max_cycle;Signal;HPM_P1;HPM_P2
2021/06/13 00:03:51;;;;;;;;;;;16.90;99.90;;;;;;8361631;28;19909;-63
2021/06/13 00:07:52;;;;;;;;;;;16.90;99.90;;;;;;8362387;28;19917;-63
2021/06/13 00:11:52;;;;;;;;;;;16.70;99.90;;;;;;8363178;28;19944;-63
2021/06/13 00:15:53;;;;;;;;;;;16.50;99.90;;;;;;8349654;28;19917;-63
2021/06/13 00:19:54;;;;;;;;;;;16.40;99.90;;;;;;8379698;28;20357;-63
2021/06/13 00:23:54;;;;;;;;;;;16.50;99.90;;;;;;8382617;28;19913;-63
2021/06/13 00:27:55;;;;;;;;;;;16.30;99.90;;;;;;8362412;28;19966;-63
2021/06/13 00:31:55;;;;;;;;;;;16.40;99.90;;;;;;8363617;28;19947;-63
2021/06/13 00:35:55;;;;;;;;;;;16.20;99.90;;;;;;8389890;28;19912;-63
2021/06/13 00:39:56;;;;;;;;;;;16.10;99.90;;;;;;8376538;28;20062;-63
2021/06/13 00:43:57;;;;;;;;;;;16.10;99.90;;;;;;8367318;28;20034;-63
2021/06/13 00:47:57;;;;;;;;;;;16.00;99.90;;;;;;8367602;28;19916;-63
2021/06/13 00:51:58;;;;;;;;;;;16.00;99.90;;;;;;8393450;28;19950;-63
2021/06/13 00:55:59;;;;;;;;;;;16.10;99.90;;;;;;8350514;28;19913;-63
2021/06/13 00:59:59;;;;;;;;;;;16.00;99.90;;;;;;8358193;28;19919;-64
2021/06/13 01:04:00;;;;;;;;;;;16.10;99.90;;;;;;8368801;28;19912;-63
2021/06/13 01:08:26;;;;;;;;;;;16.10;99.90;;;;;;8375918;28;19913;-63
2021/06/13 01:12:53;;;;;;;;;;;16.10;99.90;;;;;;8363008;28;19946;-63
2021/06/13 01:17:03;;;;;;;;;;;16.20;99.90;;;;;;8362981;28;19968;-63
2021/06/13 01:21:08;;;;;;;;;;;16.30;99.90;;;;;;8361012;28;19908;-63
2021/06/13 01:25:24;;;;;;;;;;;16.30;99.90;;;;;;8343498;28;20317;-63
2021/06/13 01:29:27;;;;;;;;;;;16.50;99.90;;;;;;8360672;28;20305;-63
2021/06/13 01:33:28;;;;;;;;;;;16.40;99.90;;;;;;8368646;28;19989;-63
2021/06/13 01:37:30;;;;;;;;;;;16.50;99.90;;;;;;8393334;28;19950;-63
2021/06/13 01:41:32;;;;;;;;;;;16.50;99.90;;;;;;8393528;28;19942;-63
2021/06/13 01:45:37;;;;;;;;;;;16.50;99.90;;;;;;8392965;28;19958;-62
2021/06/13 01:49:39;;;;;;;;;;;16.60;99.90;;;;;;8354987;28;19912;-63
2021/06/13 01:53:43;;;;;;;;;;;16.40;99.90;;;;;;8360352;28;19909;-63
2021/06/13 01:57:44;;;;;;;;;;;16.50;99.90;;;;;;8359120;28;19920;-63
2021/06/13 02:01:45;;;;;;;;;;;16.40;99.90;;;;;;8359350;28;20470;-63
2021/06/13 02:05:48;;;;;;;;;;;16.30;99.90;;;;;;8370387;28;19908;-63
2021/06/13 02:09:49;;;;;;;;;;;16.10;99.90;;;;;;8391098;28;19919;-63
2021/06/13 02:13:50;;;;;;;;;;;15.90;99.90;;;;;;8392284;28;19913;-63
2021/06/13 02:17:51;;;;;;;;;;;15.90;99.90;;;;;;8391452;28;19916;-63
2021/06/13 02:21:55;;;;;;;;;;;15.80;99.90;;;;;;8392156;28;19916;-63
2021/06/13 02:25:56;;;;;;;;;;;15.50;99.90;;;;;;8391618;28;19908;-63
2021/06/13 02:29:57;;;;;;;;;;;15.30;99.90;;;;;;8392141;28;19912;-63
2021/06/13 02:33:58;;;;;;;;;;;15.50;99.90;;;;;;8379799;28;19943;-62
2021/06/13 02:38:00;;;;;;;;;;;15.30;99.90;;;;;;8358909;28;20314;-63
2021/06/13 02:42:00;;;;;;;;;;;15.30;99.90;;;;;;8358904;28;19942;-63
2021/06/13 02:46:01;;;;;;;;;;;15.30;99.90;;;;;;8358133;28;20446;-63
2021/06/13 02:50:03;;;;;;;;;;;15.10;99.90;;;;;;8359061;28;20131;-63
2021/06/13 02:54:04;;;;;;;;;;;14.90;99.90;;;;;;8347886;28;19919;-63
2021/06/13 02:58:24;;;;;;;;;;;15.00;99.90;;;;;;8358275;28;19909;-63
2021/06/13 03:02:25;;;;;;;;;;;14.80;99.90;;;;;;8358116;28;19919;-63
2021/06/13 03:06:25;;;;;;;;;;;14.40;99.90;;;;;;8390438;28;19913;-63
2021/06/13 03:10:26;;;;;;;;;;;14.60;99.90;;;;;;8377907;28;19914;-63
2021/06/13 03:14:28;;;;;;;;;;;14.50;99.90;;;;;;8394270;28;19908;-63
2021/06/13 03:18:29;;;;;;;;;;;14.50;99.90;;;;;;8361900;22;19963;-64
2021/06/13 03:22:32;;;;;;;;;;;14.50;99.90;;;;;;8331258;28;19927;-63
2021/06/13 03:26:33;;;;;;;;;;;14.20;99.90;;;;;;8331386;28;19951;-63
2021/06/13 03:30:34;;;;;;;;;;;14.20;99.90;;;;;;8331293;28;19952;-64
2021/06/13 03:34:35;;;;;;;;;;;13.90;99.90;;;;;;8331024;28;20010;-64
2021/06/13 03:38:37;;;;;;;;;;;13.90;99.90;;;;;;8330785;28;19944;-64
2021/06/13 03:42:38;;;;;;;;;;;14.10;99.90;;;;;;8331091;28;20337;-64
2021/06/13 03:46:39;;;;;;;;;;;13.90;99.90;;;;;;8306577;28;20028;-64
2021/06/13 03:50:41;;;;;;;;;;;13.90;99.90;;;;;;8296769;28;20439;-63
2021/06/13 03:54:42;;;;;;;;;;;13.90;99.90;;;;;;8319502;28;19916;-64
2021/06/13 03:58:43;;;;;;;;;;;13.80;99.90;;;;;;8330296;28;19932;-64
2021/06/13 04:02:45;;;;;;;;;;;14.30;99.90;;;;;;8315697;28;19909;-64
2021/06/13 04:06:47;;;;;;;;;;;14.10;99.90;;;;;;8296717;28;20014;-64
2021/06/13 04:10:50;;;;;;;;;;;14.00;99.90;;;;;;8295342;28;20338;-64
2021/06/13 04:14:51;;;;;;;;;;;14.30;99.90;;;;;;8297484;28;19932;-64
2021/06/13 04:18:52;;;;;;;;;;;14.20;99.90;;;;;;8296991;28;19917;-64
2021/06/13 04:22:52;;;;;;;;;;;14.20;99.90;;;;;;8302574;28;20404;-63
2021/06/13 04:26:55;;;;;;;;;;;14.30;99.90;;;;;;8329718;28;19943;-64
2021/06/13 04:31:02;;;;;;;;;;;14.50;99.90;;;;;;8345556;28;19909;-64
2021/06/13 04:35:03;;;;;;;;;;;14.60;99.90;;;;;;8329207;28;19947;-64
2021/06/13 04:39:04;;;;;;;;;;;14.80;99.90;;;;;;8329193;28;20466;-64
2021/06/13 04:43:05;;;;;;;;;;;15.00;99.90;;;;;;8328178;28;19909;-64
2021/06/13 04:47:05;;;;;;;;;;;15.20;99.90;;;;;;8315367;28;20807;-64
2021/06/13 04:51:07;;;;;;;;;;;15.40;99.90;;;;;;8325010;28;19923;-64
2021/06/13 04:55:08;;;;;;;;;;;15.60;99.90;;;;;;8326536;28;19913;-64
2021/06/13 04:59:08;;;;;;;;;;;15.90;99.90;;;;;;8328172;28;20692;-64
2021/06/13 05:03:09;;;;;;;;;;;16.20;99.90;;;;;;8328314;28;19948;-64
2021/06/13 05:07:09;;;;;;;;;;;16.50;99.90;;;;;;8328323;28;19913;-64
2021/06/13 05:11:10;;;;;;;;;;;16.70;99.90;;;;;;8328275;28;19996;-64
2021/06/13 05:15:11;;;;;;;;;;;16.90;99.90;;;;;;8328224;28;19916;-64
2021/06/13 05:19:11;;;;;;;;;;;17.10;99.90;;;;;;8327757;28;20011;-64
2021/06/13 05:23:12;;;;;;;;;;;17.20;99.90;;;;;;8327065;28;19932;-63
2021/06/13 05:27:12;;;;;;;;;;;17.50;99.90;;;;;;8325748;28;19978;-64
2021/06/13 05:31:13;;;;;;;;;;;17.70;99.90;;;;;;8327123;28;19916;-64
2021/06/13 05:35:14;;;;;;;;;;;17.90;99.90;;;;;;8321701;28;19913;-64
2021/06/13 05:39:14;;;;;;;;;;;18.20;99.90;;;;;;8325335;28;19914;-65
2021/06/13 05:43:16;;;;;;;;;;;18.50;99.90;;;;;;8324811;28;19971;-65
2021/06/13 05:47:16;;;;;;;;;;;18.60;99.90;;;;;;8326201;28;19912;-65
2021/06/13 05:51:17;;;;;;;;;;;18.80;99.90;;;;;;8325393;28;20405;-65
2021/06/13 05:55:18;;;;;;;;;;;18.90;99.90;;;;;;8313152;28;20042;-67
2021/06/13 05:59:18;;;;;;;;;;;19.10;99.90;;;;;;8319707;28;20006;-66
2021/06/13 06:03:19;;;;;;;;;;;19.30;99.90;;;;;;8325544;28;19913;-66
2021/06/13 06:07:20;;;;;;;;;;;19.50;99.90;;;;;;8323824;28;20480;-67
2021/06/13 06:11:20;;;;;;;;;;;19.60;99.90;;;;;;8324915;28;19947;-67
2021/06/13 06:15:21;;;;;;;;;;;19.80;99.90;;;;;;8323409;28;20440;-66
2021/06/13 06:19:22;;;;;;;;;;;19.30;99.90;;;;;;8324645;28;19917;-67
2021/06/13 06:23:22;;;;;;;;;;;19.40;99.90;;;;;;8326338;28;19913;-67
2021/06/13 06:27:23;;;;;;;;;;;19.70;99.90;;;;;;8324692;28;19957;-66
2021/06/13 06:31:23;;;;;;;;;;;19.80;99.90;;;;;;8325394;28;19913;-67
2021/06/13 06:35:24;;;;;;;;;;;19.40;99.90;;;;;;8321870;28;19947;-66
2021/06/13 06:39:25;;;;;;;;;;;19.00;99.90;;;;;;8324541;28;19956;-66
2021/06/13 06:43:25;;;;;;;;;;;18.50;99.90;;;;;;8325347;28;19944;-66
2021/06/13 06:47:26;;;;;;;;;;;18.80;99.90;;;;;;8325044;28;19917;-66
2021/06/13 06:51:27;;;;;;;;;;;18.70;99.90;;;;;;8322307;28;19967;-67
2021/06/13 06:55:27;;;;;;;;;;;18.90;99.90;;;;;;8322917;28;19913;-66
2021/06/13 06:59:28;;;;;;;;;;;19.30;99.90;;;;;;8322896;28;19917;-66
2021/06/13 07:03:30;;;;;;;;;;;19.80;99.90;;;;;;8324092;28;19917;-66
2021/06/13 07:07:30;;;;;;;;;;;20.20;99.90;;;;;;8324468;28;19964;-66
2021/06/13 07:11:31;;;;;;;;;;;20.00;99.90;;;;;;8324605;28;19920;-66
2021/06/13 07:15:32;;;;;;;;;;;19.30;99.90;;;;;;8323971;28;20044;-66
2021/06/13 07:19:32;;;;;;;;;;;19.70;99.90;;;;;;8323987;28;20302;-66
2021/06/13 07:23:33;;;;;;;;;;;19.30;99.90;;;;;;8324025;28;19919;-66
2021/06/13 07:27:35;;;;;;;;;;;19.60;99.90;;;;;;8323471;28;20011;-66
2021/06/13 07:31:35;;;;;;;;;;;19.80;99.90;;;;;;8322640;28;20449;-67
2021/06/13 07:35:37;;;;;;;;;;;20.20;99.90;;;;;;8321985;28;19913;-66
2021/06/13 07:39:37;;;;;;;;;;;20.70;99.90;;;;;;8323618;28;19930;-67
2021/06/13 07:43:38;;;;;;;;;;;21.10;99.90;;;;;;8323366;28;20399;-66
2021/06/13 07:47:38;;;;;;;;;;;20.40;99.90;;;;;;8322344;28;19928;-66
2021/06/13 07:51:39;;;;;;;;;;;20.40;99.90;;;;;;8320886;28;19924;-67
2021/06/13 07:55:40;;;;;;;;;;;20.60;99.90;;;;;;8322296;28;19956;-66
2021/06/13 07:59:41;;;;;;;;;;;20.30;99.90;;;;;;8327158;28;19956;-67
2021/06/13 08:03:41;;;;;;;;;;;20.20;99.90;;;;;;8326079;28;19913;-66
2021/06/13 08:07:42;;;;;;;;;;;20.20;99.90;;;;;;8328591;28;20015;-66
2021/06/13 08:11:42;;;;;;;;;;;21.00;99.90;;;;;;8326756;28;20354;-66
2021/06/13 08:15:43;;;;;;;;;;;21.60;99.90;;;;;;8328379;28;19947;-66
2021/06/13 08:19:43;;;;;;;;;;;21.90;99.90;;;;;;8329366;28;19951;-66
2021/06/13 08:23:44;;;;;;;;;;;22.40;99.90;;;;;;8328266;28;20611;-66
2021/06/13 08:27:45;;;;;;;;;;;22.70;99.90;;;;;;8322098;28;19917;-67
2021/06/13 08:31:45;;;;;;;;;;;23.00;99.90;;;;;;8329348;28;19932;-66
2021/06/13 08:35:46;;;;;;;;;;;22.70;99.90;;;;;;8326361;28;19921;-67
2021/06/13 08:39:46;;;;;;;;;;;22.70;99.90;;;;;;8326402;28;19920;-66
2021/06/13 08:43:48;;;;;;;;;;;22.90;99.90;;;;;;8326788;28;19913;-66
2021/06/13 08:47:51;;;;;;;;;;;22.70;99.90;;;;;;8327995;28;19917;-65
2021/06/13 08:51:51;;;;;;;;;;;22.20;99.90;;;;;;8328249;28;20572;-66
2021/06/13 08:55:52;;;;;;;;;;;21.70;99.90;;;;;;8328350;28;19947;-67
2021/06/13 08:59:53;;;;;;;;;;;21.50;99.90;;;;;;8327790;28;20546;-65
2021/06/13 09:03:53;;;;;;;;;;;21.50;99.90;;;;;;8321125;28;19925;-67
2021/06/13 09:08:20;;;;;;;;;;;21.60;99.90;;;;;;8328610;28;19954;-67
2021/06/13 09:12:23;;;;;;;;;;;21.80;99.90;;;;;;8320202;28;20053;-67
2021/06/13 09:16:28;;;;;;;;;;;22.20;99.90;;;;;;8327840;28;19921;-67
2021/06/13 09:20:30;;;;;;;;;;;22.70;99.90;;;;;;8327741;28;20409;-67
2021/06/13 09:24:30;;;;;;;;;;;23.00;99.90;;;;;;8328150;28;19913;-67
2021/06/13 09:28:32;;;;;;;;;;;22.20;99.90;;;;;;8328398;28;19927;-66
2021/06/13 09:32:53;;;;;;;;;;;21.30;99.90;;;;;;8327321;28;19954;-66
2021/06/13 09:37:01;;;;;;;;;;;21.10;99.90;;;;;;8325697;28;19919;-67
2021/06/13 09:41:07;;;;;;;;;;;21.40;99.90;;;;;;8325884;28;19913;-67
2021/06/13 09:45:17;;;;;;;;;;;21.80;99.90;;;;;;8325175;28;20382;-67
2021/06/13 09:49:18;;;;;;;;;;;22.50;99.90;;;;;;8324917;28;19933;-68
2021/06/13 09:53:33;;;;;;;;;;;23.20;99.90;;;;;;8346279;22;19971;-67
2021/06/13 09:57:34;;;;;;;;;;;23.40;99.90;;;;;;8323790;28;19920;-66
2021/06/13 10:01:37;;;;;;;;;;;22.90;99.60;;;;;;8346110;28;19913;-66
2021/06/13 10:05:53;;;;;;;;;;;22.60;99.90;;;;;;8295823;28;20382;-66
2021/06/13 10:09:54;;;;;;;;;;;22.40;99.90;;;;;;8292814;28;19913;-66
2021/06/13 10:14:03;;;;;;;;;;;22.90;99.70;;;;;;8294551;28;19917;-66
2021/06/13 10:18:11;;;;;;;;;;;23.00;97.90;;;;;;8293108;28;19910;-66
2021/06/13 10:22:12;;;;;;;;;;;22.40;96.20;;;;;;8295115;28;19936;-66
2021/06/13 10:26:13;;;;;;;;;;;22.30;98.70;;;;;;8326073;28;19913;-66
2021/06/13 10:30:13;;;;;;;;;;;22.70;99.90;;;;;;8326471;28;20375;-66
2021/06/13 10:34:15;;;;;;;;;;;22.70;98.70;;;;;;8312383;28;19950;-66
2021/06/13 10:38:15;;;;;;;;;;;22.70;99.90;;;;;;8309319;28;20008;-66
2021/06/13 10:42:17;;;;;;;;;;;23.40;99.90;;;;;;8306279;28;19913;-66
2021/06/13 10:46:19;;;;;;;;;;;23.90;99.90;;;;;;8302797;28;19928;-66
2021/06/13 10:50:31;;;;;;;;;;;23.40;95.80;;;;;;8309949;28;20537;-66
2021/06/13 10:54:35;;;;;;;;;;;23.30;98.70;;;;;;8314110;28;19952;-66
2021/06/13 10:58:49;;;;;;;;;;;23.60;97.00;;;;;;8300818;28;19944;-65
2021/06/13 11:02:57;;;;;;;;;;;23.80;99.90;;;;;;8305377;28;20433;-66
2021/06/13 11:06:57;;;;;;;;;;;24.40;95.90;;;;;;8297258;28;19951;-66
2021/06/13 11:10:58;;;;;;;;;;;24.10;94.10;;;;;;8316924;28;20292;-66
2021/06/13 11:14:59;;;;;;;;;;;24.30;95.20;;;;;;8311230;28;19917;-65
2021/06/13 11:19:18;;;;;;;;;;;24.50;85.50;;;;;;8309435;28;20439;-65
2021/06/13 11:23:21;;;;;;;;;;;23.70;84.00;;;;;;8309683;28;20382;-66
2021/06/13 11:27:22;;;;;;;;;;;23.20;94.10;;;;;;8318342;28;19923;-66
2021/06/13 11:31:24;;;;;;;;;;;23.40;90.30;;;;;;8320724;28;19951;-66
2021/06/13 11:35:29;;;;;;;;;;;24.30;90.70;;;;;;8302305;28;19963;-67
2021/06/13 11:39:31;;;;;;;;;;;26.20;89.20;;;;;;8316368;28;20446;-66
2021/06/13 11:43:44;;;;;;;;;;;28.90;78.00;;;;;;8318144;28;19913;-67
2021/06/13 11:47:45;;;;;;;;;;;30.90;61.20;;;;;;8317591;28;20336;-67
2021/06/13 11:51:48;;;;;;;;;;;32.70;53.30;;;;;;8329811;28;19916;-66
2021/06/13 11:58:24;;;;;;;;;;;31.30;46.30;;;;;;8483235;27;19970;-65
2021/06/13 12:02:26;;;;;;;;;;;30.20;56.30;;;;;;8447108;28;20000;-65
2021/06/13 12:06:26;;;;;;;;;;;30.00;54.80;;;;;;8413229;28;19991;-65
2021/06/13 12:10:31;;;;;;;;;;;28.90;55.20;;;;;;8416777;28;19908;-65
2021/06/13 12:14:34;;;;;;;;;;;27.80;56.00;;;;;;8415428;28;20030;-65
2021/06/13 12:18:35;;;;;;;;;;;27.70;56.00;;;;;;8414759;28;20263;-64
2021/06/13 12:22:54;;;;;;;;;;;27.60;61.50;;;;;;8434664;28;19942;-64
2021/06/13 12:31:13;;;;;;;;;;;27.40;65.70;;;;;;8397558;28;20413;-64
2021/06/13 12:35:16;;;;;;;;;;;28.40;59.10;;;;;;8419600;28;19917;-64
2021/06/13 12:39:23;;;;;;;;;;;27.70;60.50;;;;;;8435538;28;20370;-64
2021/06/13 12:43:31;;;;;;;;;;;28.50;61.60;;;;;;8415099;28;19920;-66
2021/06/13 12:47:32;;;;;;;;;;;31.30;55.50;;;;;;8415372;28;19917;-65
2021/06/13 12:51:35;;;;;;;;;;;31.00;49.00;;;;;;8416427;28;19916;-65
2021/06/13 12:55:43;;;;;;;;;;;35.00;48.30;;;;;;8417293;28;20011;-66
2021/06/13 12:59:44;;;;;;;;;;;38.40;40.40;;;;;;8417137;28;20316;-66
2021/06/13 13:03:46;;;;;;;;;;;39.70;34.90;;;;;;8416103;28;19924;-65
2021/06/13 13:07:47;;;;;;;;;;;39.00;52.60;;;;;;8407264;28;19948;-66
2021/06/13 13:11:51;;;;;;;;;;;39.40;36.50;;;;;;8396212;28;19916;-65
2021/06/13 13:15:52;;;;;;;;;;;42.00;31.60;;;;;;8395813;28;19917;-65
2021/06/13 13:19:52;;;;;;;;;;;42.40;29.30;;;;;;8395919;28;19912;-65
2021/06/13 13:23:53;;;;;;;;;;;40.70;30.90;;;;;;8396409;28;20513;-65
2021/06/13 13:27:53;;;;;;;;;;;41.80;31.10;;;;;;8394852;28;20498;-64
2021/06/13 13:32:00;;;;;;;;;;;40.20;30.20;;;;;;8393851;28;19924;-65
2021/06/13 13:36:04;;;;;;;;;;;38.60;31.00;;;;;;8390391;28;20429;-64
2021/06/13 13:40:09;;;;;;;;;;;36.70;36.40;;;;;;8401269;28;20340;-66
2021/06/13 13:44:10;;;;;;;;;;;38.70;33.90;;;;;;8399189;28;19921;-65
2021/06/13 13:48:15;;;;;;;;;;;42.20;30.40;;;;;;8394557;28;19919;-66
2021/06/13 13:52:18;;;;;;;;;;;38.50;29.60;;;;;;8394637;28;19938;-65
2021/06/13 13:56:20;;;;;;;;;;;39.30;32.00;;;;;;8393161;28;20378;-65
2021/06/13 14:00:21;;;;;;;;;;;42.90;29.20;;;;;;8384147;28;19913;-65
2021/06/13 14:04:22;;;;;;;;;;;44.40;29.30;;;;;;8363691;28;21243;-66
2021/06/13 14:08:23;;;;;;;;;;;43.60;29.10;;;;;;8364108;28;20654;-65
2021/06/13 14:12:24;;;;;;;;;;;38.70;31.70;;;;;;8362291;28;20007;-66
2021/06/13 14:16:24;;;;;;;;;;;40.20;31.40;;;;;;8387374;28;19924;-65
2021/06/13 14:20:25;;;;;;;;;;;41.30;30.50;;;;;;8390390;28;20047;-65
2021/06/13 14:24:26;;;;;;;;;;;38.00;32.90;;;;;;8392417;28;19912;-65
2021/06/13 14:28:26;;;;;;;;;;;35.70;33.90;;;;;;8388849;28;19963;-65
2021/06/13 14:32:27;;;;;;;;;;;36.20;32.70;;;;;;8392214;28;19917;-65
2021/06/13 14:36:27;;;;;;;;;;;34.40;36.20;;;;;;8390973;28;19929;-65
2021/06/13 14:40:28;;;;;;;;;;;33.70;37.70;;;;;;8389780;28;19913;-66
2021/06/13 14:44:29;;;;;;;;;;;35.70;36.80;;;;;;8389833;28;20500;-66
2021/06/13 14:48:30;;;;;;;;;;;37.50;31.00;;;;;;8388248;28;19916;-65
2021/06/13 14:52:30;;;;;;;;;;;34.50;35.70;;;;;;8393201;28;19952;-65
2021/06/13 14:56:31;;;;;;;;;;;34.20;36.80;;;;;;8392141;28;19952;-65
2021/06/13 15:00:31;;;;;;;;;;;36.30;31.20;;;;;;8389643;28;19939;-64
2021/06/13 15:04:32;;;;;;;;;;;36.60;34.70;;;;;;8390034;28;19920;-65
2021/06/13 15:08:32;;;;;;;;;;;36.80;34.60;;;;;;8389105;28;21168;-65
2021/06/13 15:12:33;;;;;;;;;;;37.90;31.30;;;;;;8384942;28;19956;-65
2021/06/13 15:16:33;;;;;;;;;;;39.30;28.60;;;;;;8390754;28;20397;-65
2021/06/13 15:20:38;;;;;;;;;;;40.00;28.90;;;;;;8390314;28;19913;-64
2021/06/13 15:24:39;;;;;;;;;;;39.60;26.60;;;;;;8385632;28;19952;-66
2021/06/13 15:28:40;;;;;;;;;;;39.40;27.20;;;;;;8389535;28;19920;-65
2021/06/13 15:32:41;;;;;;;;;;;39.00;27.00;;;;;;8389175;28;20522;-65
2021/06/13 15:36:46;;;;;;;;;;;35.90;30.00;;;;;;8386511;28;19952;-66
2021/06/13 15:40:46;;;;;;;;;;;35.80;32.80;;;;;;8388170;28;19916;-65
2021/06/13 15:44:48;;;;;;;;;;;39.60;29.80;;;;;;8388105;28;20394;-66
2021/06/13 15:48:49;;;;;;;;;;;41.30;26.90;;;;;;8389023;28;19995;-65
2021/06/13 15:52:49;;;;;;;;;;;41.70;27.20;;;;;;8383579;28;19919;-66
2021/06/13 15:56:52;;;;;;;;;;;42.90;25.80;;;;;;8382191;28;19939;-67
2021/06/13 16:00:52;;;;;;;;;;;41.30;26.40;;;;;;8378486;28;19917;-68
2021/06/13 16:04:53;;;;;;;;;;;41.30;25.20;;;;;;8378497;28;19908;-67
2021/06/13 16:08:53;;;;;;;;;;;41.50;26.60;;;;;;8375156;28;20531;-67
2021/06/13 16:12:54;;;;;;;;;;;39.30;27.60;;;;;;8378041;28;19909;-66
2021/06/13 16:16:55;;;;;;;;;;;38.90;29.40;;;;;;8381676;28;20013;-67
2021/06/13 16:20:55;;;;;;;;;;;41.30;28.20;;;;;;8378894;28;19912;-67
2021/06/13 16:24:56;;;;;;;;;;;41.00;27.20;;;;;;8380392;28;19995;-68
2021/06/13 16:28:57;;;;;;;;;;;42.90;26.90;;;;;;8375333;28;19917;-68
2021/06/13 16:32:57;;;;;;;;;;;44.80;25.40;;;;;;8373755;28;20001;-68
2021/06/13 16:36:59;;;;;;;;;;;45.70;24.50;;;;;;8373053;28;19924;-68
2021/06/13 16:41:00;;;;;;;;;;;45.30;24.20;;;;;;8375221;28;20457;-68
2021/06/13 16:45:01;;;;;;;;;;;46.20;24.50;;;;;;8391877;28;19921;-67
2021/06/13 16:49:02;;;;;;;;;;;45.10;24.60;;;;;;8406682;22;19925;-69
2021/06/13 16:53:03;;;;;;;;;;;39.60;28.70;;;;;;8364118;28;19909;-67
2021/06/13 16:57:06;;;;;;;;;;;40.10;28.80;;;;;;8364341;28;19932;-67
2021/06/13 17:01:06;;;;;;;;;;;42.20;26.50;;;;;;8363690;28;19939;-67
2021/06/13 17:05:07;;;;;;;;;;;41.40;26.30;;;;;;8364064;28;19913;-67
2021/06/13 17:09:07;;;;;;;;;;;38.60;29.40;;;;;;8363254;28;19913;-67
2021/06/13 17:13:08;;;;;;;;;;;36.90;31.50;;;;;;8363237;28;20369;-67
2021/06/13 17:17:09;;;;;;;;;;;39.20;29.00;;;;;;8359447;28;19952;-66
2021/06/13 17:21:09;;;;;;;;;;;41.20;28.10;;;;;;8343170;28;19913;-67
2021/06/13 17:25:13;;;;;;;;;;;39.90;27.80;;;;;;8373200;28;19913;-66
2021/06/13 17:29:13;;;;;;;;;;;36.80;29.80;;;;;;8351183;28;19912;-65
2021/06/13 17:33:14;;;;;;;;;;;33.40;35.00;;;;;;8337941;28;19935;-66
2021/06/13 17:37:20;;;;;;;;;;;31.20;39.20;;;;;;8343396;28;19978;-65
2021/06/13 17:41:33;;;;;;;;;;;30.20;39.80;;;;;;8347457;28;19945;-64
2021/06/13 17:45:34;;;;;;;;;;;30.30;38.80;;;;;;8355419;28;20295;-65
2021/06/13 17:49:34;;;;;;;;;;;29.50;39.30;;;;;;8355177;28;19917;-65
2021/06/13 17:53:35;;;;;;;;;;;28.30;43.50;;;;;;8355378;28;20279;-65
2021/06/13 17:57:36;;;;;;;;;;;27.20;43.10;;;;;;8346621;28;19921;-65
2021/06/13 18:01:36;;;;;;;;;;;27.60;42.90;;;;;;8347409;28;19916;-65
2021/06/13 18:05:37;;;;;;;;;;;27.60;42.20;;;;;;8349861;28;19921;-65
2021/06/13 18:09:38;;;;;;;;;;;28.00;43.60;;;;;;8344916;28;19963;-66
2021/06/13 18:13:38;;;;;;;;;;;30.00;40.70;;;;;;8349449;28;19925;-65
2021/06/13 18:17:41;;;;;;;;;;;30.80;39.00;;;;;;8343833;28;20455;-66
2021/06/13 18:21:42;;;;;;;;;;;30.10;40.60;;;;;;8342838;28;19935;-65
2021/06/13 18:25:42;;;;;;;;;;;27.50;43.50;;;;;;8342700;28;19941;-65
2021/06/13 18:29:43;;;;;;;;;;;25.00;48.70;;;;;;8327969;28;19917;-64
2021/06/13 18:33:44;;;;;;;;;;;23.50;53.80;;;;;;8332657;28;20399;-67
2021/06/13 18:37:45;;;;;;;;;;;22.50;56.40;;;;;;8333480;28;19924;-67
2021/06/13 18:41:46;;;;;;;;;;;21.50;59.40;;;;;;8338246;28;20013;-67
2021/06/13 18:45:47;;;;;;;;;;;20.80;62.70;;;;;;8322573;28;19914;-67
2021/06/13 18:49:47;;;;;;;;;;;20.50;63.20;;;;;;8327657;28;19958;-67
2021/06/13 18:53:49;;;;;;;;;;;20.40;64.80;;;;;;8331154;28;20047;-67
2021/06/13 18:57:50;;;;;;;;;;;20.10;66.30;;;;;;8338927;28;19921;-68
2021/06/13 19:01:51;;;;;;;;;;;19.80;70.30;;;;;;8343162;28;20014;-67
2021/06/13 19:05:51;;;;;;;;;;;19.60;70.10;;;;;;8338246;28;20002;-68
2021/06/13 19:09:52;;;;;;;;;;;19.60;71.50;;;;;;8337280;28;19921;-68
2021/06/13 19:13:52;;;;;;;;;;;19.70;70.40;;;;;;8344662;28;20023;-65
2021/06/13 19:17:53;;;;;;;;;;;19.60;71.50;;;;;;8337870;28;19928;-64
2021/06/13 19:21:53;;;;;;;;;;;19.40;74.40;;;;;;8353210;28;20586;-64
2021/06/13 19:25:54;;;;;;;;;;;19.20;75.80;;;;;;8330534;28;19917;-64
2021/06/13 19:29:54;;;;;;;;;;;19.00;77.20;;;;;;8335224;28;19923;-64
2021/06/13 19:33:55;;;;;;;;;;;18.80;79.20;;;;;;8336714;28;19912;-64
2021/06/13 19:37:56;;;;;;;;;;;18.60;79.30;;;;;;8343478;28;19913;-64
2021/06/13 19:41:57;;;;;;;;;;;18.50;79.80;;;;;;8338772;28;19917;-62
2021/06/13 19:45:57;;;;;;;;;;;18.30;80.40;;;;;;8346441;28;19921;-62
2021/06/13 19:49:58;;;;;;;;;;;18.10;80.90;;;;;;8345810;28;19925;-62
2021/06/13 19:53:58;;;;;;;;;;;18.00;83.10;;;;;;8351721;28;20005;-62
2021/06/13 19:57:59;;;;;;;;;;;17.80;82.40;;;;;;8350274;28;19917;-62
2021/06/13 20:01:59;;;;;;;;;;;18.00;81.90;;;;;;8349397;28;19959;-62
2021/06/13 20:06:00;;;;;;;;;;;17.90;81.80;;;;;;8340522;28;19979;-62
2021/06/13 20:10:00;;;;;;;;;;;17.80;81.90;;;;;;8338304;28;20001;-63
2021/06/13 20:14:01;;;;;;;;;;;17.60;84.40;;;;;;8367079;28;19973;-62
2021/06/13 20:18:02;;;;;;;;;;;17.40;87.60;;;;;;8337229;28;20191;-62
2021/06/13 20:22:03;;;;;;;;;;;17.20;89.50;;;;;;8354665;28;19943;-62
2021/06/13 20:26:03;;;;;;;;;;;16.90;91.60;;;;;;8364369;28;19916;-62
2021/06/13 20:30:05;;;;;;;;;;;16.50;93.80;;;;;;8354962;28;19913;-62
2021/06/13 20:34:06;;;;;;;;;;;16.40;95.90;;;;;;8343825;28;19920;-62
2021/06/13 20:38:07;;;;;;;;;;;16.40;96.00;;;;;;8349418;28;19917;-63
2021/06/13 20:42:08;;;;;;;;;;;16.50;96.20;;;;;;8364397;28;20485;-62
2021/06/13 20:46:09;;;;;;;;;;;16.50;94.70;;;;;;8364726;28;19913;-62
2021/06/13 20:50:11;;;;;;;;;;;16.30;98.90;;;;;;8364531;28;19970;-62
2021/06/13 20:54:12;;;;;;;;;;;16.40;99.90;;;;;;8364437;28;20134;-61
2021/06/13 20:58:14;;;;;;;;;;;16.20;97.00;;;;;;8363989;28;19913;-63
2021/06/13 21:02:15;;;;;;;;;;;15.90;99.70;;;;;;8364096;28;19912;-62
2021/06/13 21:06:16;;;;;;;;;;;16.00;99.90;;;;;;8363629;28;20381;-62
2021/06/13 21:10:20;;;;;;;;;;;15.90;99.90;;;;;;8363648;28;20069;-62
2021/06/13 21:14:20;;;;;;;;;;;15.80;99.90;;;;;;8363872;28;19944;-63
2021/06/13 21:18:21;;;;;;;;;;;15.60;99.90;;;;;;8362969;28;19920;-63
2021/06/13 21:22:21;;;;;;;;;;;15.40;99.90;;;;;;8363205;28;19909;-62
2021/06/13 21:26:22;;;;;;;;;;;15.20;99.90;;;;;;8363024;28;19995;-62
2021/06/13 21:30:23;;;;;;;;;;;15.20;99.90;;;;;;8362447;28;20027;-62
2021/06/13 21:34:23;;;;;;;;;;;15.10;99.90;;;;;;8363304;28;19978;-62
2021/06/13 21:38:24;;;;;;;;;;;15.20;99.90;;;;;;8359944;28;19956;-62
2021/06/13 21:42:24;;;;;;;;;;;15.20;99.90;;;;;;8360463;28;20377;-62
2021/06/13 21:46:25;;;;;;;;;;;15.40;99.90;;;;;;8360095;28;19915;-63
2021/06/13 21:50:25;;;;;;;;;;;15.20;99.90;;;;;;8359902;28;19923;-62
2021/06/13 21:54:26;;;;;;;;;;;15.20;99.90;;;;;;8360863;28;19962;-62
2021/06/13 21:58:26;;;;;;;;;;;15.30;99.90;;;;;;8361836;28;19958;-62
2021/06/13 22:02:27;;;;;;;;;;;15.10;99.90;;;;;;8362309;28;19909;-62
2021/06/13 22:06:27;;;;;;;;;;;15.20;99.90;;;;;;8360294;28;19913;-62
2021/06/13 22:10:28;;;;;;;;;;;15.10;99.90;;;;;;8361647;28;19946;-62
2021/06/13 22:14:29;;;;;;;;;;;14.80;99.90;;;;;;8361800;28;20282;-63
2021/06/13 22:18:29;;;;;;;;;;;14.60;99.90;;;;;;8360586;28;20485;-62
2021/06/13 22:22:30;;;;;;;;;;;14.30;99.90;;;;;;8361293;28;19962;-62
2021/06/13 22:26:30;;;;;;;;;;;14.10;99.90;;;;;;8361087;28;19909;-62
2021/06/13 22:30:31;;;;;;;;;;;14.20;99.90;;;;;;8361114;28;19952;-62
2021/06/13 22:34:31;;;;;;;;;;;14.20;99.90;;;;;;8361644;28;19909;-62
2021/06/13 22:38:32;;;;;;;;;;;13.80;99.90;;;;;;8361071;28;20281;-62
2021/06/13 22:42:33;;;;;;;;;;;13.70;99.90;;;;;;8360295;28;20338;-61
2021/06/13 22:46:33;;;;;;;;;;;13.80;99.90;;;;;;8360716;28;19949;-62
2021/06/13 22:50:34;;;;;;;;;;;13.80;99.90;;;;;;8360428;28;19970;-62
2021/06/13 22:54:34;;;;;;;;;;;13.70;99.90;;;;;;8360455;28;19923;-62
2021/06/13 22:58:35;;;;;;;;;;;13.20;99.90;;;;;;8359987;28;20374;-62
2021/06/13 23:02:36;;;;;;;;;;;13.20;99.90;;;;;;8358791;28;20294;-62
2021/06/13 23:06:36;;;;;;;;;;;13.50;99.90;;;;;;8359814;28;20397;-62
2021/06/13 23:10:37;;;;;;;;;;;13.30;99.90;;;;;;8359800;28;19998;-62
2021/06/13 23:14:37;;;;;;;;;;;13.00;99.90;;;;;;8359456;28;19920;-62
2021/06/13 23:18:38;;;;;;;;;;;12.80;99.90;;;;;;8359164;28;19947;-62
2021/06/13 23:22:38;;;;;;;;;;;12.70;99.90;;;;;;8359477;28;19956;-62
2021/06/13 23:26:39;;;;;;;;;;;12.60;99.90;;;;;;8359254;28;19988;-62
2021/06/13 23:30:39;;;;;;;;;;;12.60;99.90;;;;;;8359147;28;20402;-63
2021/06/13 23:34:40;;;;;;;;;;;12.60;99.90;;;;;;8359521;28;20397;-62